Time;durP1;ratioP1;P1;durP2;ratioP2;P2;SDS_P1;SDS_P2;PMS_P1;PMS_P2;Temp;Humidity;BMP_temperature;BMP_pressure;BME280_temperature;BME280_humidity;BME280_pressure;Samples;Min_cycle;Max_cycle;Signal;HPM_P1;HPM_P2
2022/10/20 00:00:08;;;;;;;23.70;18.92;;;;;;;14.24;64.09;95113.94;4192740;28;20045;-62
2022/10/20 00:02:09;;;;;;;25.58;19.48;;;;;;;14.26;64.13;95118.09;4188836;28;20517;-61
2022/10/20 00:04:11;;;;;;;26.70;19.42;;;;;;;14.28;63.60;95116.09;4190326;28;20532;-63
2022/10/20 00:06:17;;;;;;;25.25;18.95;;;;;;;14.26;63.60;95120.72;4196031;28;20129;-63
2022/10/20 00:08:18;;;;;;;20.67;17.92;;;;;;;14.20;63.31;95116.13;4196175;28;20231;-64
2022/10/20 00:10:20;;;;;;;20.38;17.67;;;;;;;14.19;63.22;95111.84;4193912;28;20127;-63
2022/10/20 00:12:22;;;;;;;23.55;16.95;;;;;;;14.19;62.80;95111.84;4193194;28;20076;-63
2022/10/20 00:14:23;;;;;;;23.92;17.70;;;;;;;14.21;62.83;95111.69;4196302;28;20502;-62
2022/10/20 00:16:27;;;;;;;24.27;18.30;;;;;;;14.21;62.24;95117.75;4192292;28;20132;-63
2022/10/20 00:18:29;;;;;;;;;;;;;;;14.21;62.00;95109.03;4194810;28;20114;-62
2022/10/20 00:20:30;;;;;;;22.30;16.52;;;;;;;14.24;62.11;95114.81;4181597;28;20448;-63
2022/10/20 00:22:32;;;;;;;20.15;17.00;;;;;;;14.09;62.14;95105.97;4194332;28;20155;-61
2022/10/20 00:24:34;;;;;;;25.83;16.63;;;;;;;14.11;62.15;95109.22;4194781;28;20127;-62
2022/10/20 00:26:36;;;;;;;17.67;15.40;;;;;;;14.06;61.57;95106.28;4193783;28;20049;-62
2022/10/20 00:28:37;;;;;;;18.65;14.68;;;;;;;14.09;61.09;95108.59;4194995;28;20128;-63
2022/10/20 00:30:39;;;;;;;17.50;14.40;;;;;;;14.09;60.88;95119.97;4193655;28;20055;-64
2022/10/20 00:32:41;;;;;;;17.95;14.43;;;;;;;14.04;60.80;95122.25;4195622;28;20083;-63
2022/10/20 00:34:43;;;;;;;16.83;13.25;;;;;;;14.00;60.76;95107.78;4194346;28;20052;-63
2022/10/20 00:36:45;;;;;;;19.13;13.88;;;;;;;13.91;60.65;95109.63;4188546;28;20084;-64
2022/10/20 00:38:56;;;;;;;19.02;13.60;;;;;;;13.95;60.70;95102.22;4185589;28;20505;-62
2022/10/20 00:41:04;;;;;;;17.17;13.57;;;;;;;13.94;60.51;95100.59;4178837;28;20141;-63
2022/10/20 00:43:11;;;;;;;18.00;13.13;;;;;;;14.03;60.40;95107.47;4190703;28;20458;-63
2022/10/20 00:45:16;;;;;;;15.85;12.60;;;;;;;13.98;60.29;95093.16;4177383;28;20044;-64
2022/10/20 00:47:40;;;;;;;16.02;12.27;;;;;;;13.99;60.04;95100.06;4186733;28;20131;-64
2022/10/20 00:49:42;;;;;;;19.63;12.05;;;;;;;13.98;59.96;95088.72;4179839;28;20045;-62
2022/10/20 00:51:44;;;;;;;14.82;12.25;;;;;;;13.99;59.90;95090.34;4183330;28;20053;-64
2022/10/20 00:53:48;;;;;;;15.48;11.77;;;;;;;14.03;59.56;95090.84;4186246;28;20080;-61
2022/10/20 00:55:51;;;;;;;19.35;12.27;;;;;;;14.10;59.12;95083.88;4173491;28;20135;-63
2022/10/20 00:57:55;;;;;;;15.87;11.10;;;;;;;14.14;58.58;95083.38;4179126;28;20071;-62
2022/10/20 00:59:56;;;;;;;14.95;11.00;;;;;;;14.13;58.63;95096.72;4177887;28;20052;-64
2022/10/20 01:01:59;;;;;;;15.63;10.32;;;;;;;14.13;58.32;95094.06;4177852;28;20064;-62
2022/10/20 01:04:01;;;;;;;15.27;10.77;;;;;;;14.06;58.07;95095.75;4182464;28;20051;-62
2022/10/20 01:06:02;;;;;;;12.77;10.32;;;;;;;14.04;58.20;95103.81;4190934;28;20049;-62
2022/10/20 01:08:04;;;;;;;12.45;9.98;;;;;;;14.07;58.08;95100.06;4191644;28;20083;-63
2022/10/20 01:10:06;;;;;;;12.60;10.30;;;;;;;14.07;57.95;95097.41;4190897;28;20132;-62
2022/10/20 01:12:29;;;;;;;12.55;9.52;;;;;;;14.05;57.56;95097.59;4192290;28;20192;-63
2022/10/20 01:14:42;;;;;;;14.85;9.90;;;;;;;14.02;57.90;95105.81;4192304;28;20127;-62
2022/10/20 01:16:50;;;;;;;12.63;10.13;;;;;;;13.99;57.64;95097.44;4184040;28;20123;-63
2022/10/20 01:19:02;;;;;;;15.88;10.10;;;;;;;13.95;57.71;95099.59;4186777;28;20309;-63
2022/10/20 01:21:15;;;;;;;15.13;10.30;;;;;;;13.97;57.90;95096.78;4183578;28;20049;-63
2022/10/20 01:23:31;;;;;;;13.57;10.27;;;;;;;14.00;57.63;95097.25;4187157;28;20052;-63
2022/10/20 01:25:56;;;;;;;11.85;9.25;;;;;;;14.02;57.30;95095.25;4177082;28;20112;-63
2022/10/20 01:28:03;;;;;;;13.15;9.77;;;;;;;13.97;57.46;95096.78;4181241;28;20052;-63
2022/10/20 01:30:05;;;;;;;12.88;9.73;;;;;;;13.97;57.90;95096.78;4178890;28;20618;-65
2022/10/20 01:32:48;;;;;;;11.82;9.13;;;;;;;13.98;57.71;95095.78;4164385;28;20111;-63
2022/10/20 01:35:05;;;;;;;11.93;9.20;;;;;;;14.03;57.42;95091.66;4175185;28;20053;-64
2022/10/20 01:37:21;;;;;;;12.80;9.90;;;;;;;14.00;57.78;95096.44;4175311;28;20045;-62
2022/10/20 01:39:48;;;;;;;10.93;8.90;;;;;;;13.99;57.69;95098.25;4173582;28;20053;-63
2022/10/20 01:41:57;;;;;;;12.23;9.00;;;;;;;13.96;57.52;95090.72;4150879;28;20054;-64
2022/10/20 01:44:02;;;;;;;11.60;9.45;;;;;;;13.92;57.74;95095.47;4174364;28;20464;-64
2022/10/20 01:46:05;;;;;;;15.60;9.40;;;;;;;13.92;57.93;95100.75;4145104;28;20179;-64
2022/10/20 01:48:09;;;;;;;13.55;9.30;;;;;;;13.91;57.95;95098.28;4150290;28;20054;-64
2022/10/20 01:50:12;;;;;;;14.38;10.00;;;;;;;13.84;58.34;95106.03;4153099;28;20049;-63
2022/10/20 01:52:14;;;;;;;11.50;9.27;;;;;;;13.78;58.76;95105.91;4175220;28;20147;-65
2022/10/20 01:54:22;;;;;;;10.35;8.80;;;;;;;13.74;58.61;95108.03;4158674;28;20076;-64
2022/10/20 01:56:50;;;;;;;11.98;9.68;;;;;;;13.67;58.98;95105.25;4158598;28;20506;-63
2022/10/20 01:59:13;;;;;;;15.18;10.20;;;;;;;13.56;59.52;95105.59;4175374;28;20068;-62
2022/10/20 02:01:25;;;;;;;14.90;10.32;;;;;;;13.62;59.25;95114.66;4156894;28;20038;-63
2022/10/20 02:03:36;;;;;;;12.50;9.32;;;;;;;13.63;59.24;95105.75;4172745;28;20162;-63
2022/10/20 02:05:59;;;;;;;12.68;9.88;;;;;;;13.62;59.48;95112.03;4165662;28;20125;-63
2022/10/20 02:08:22;;;;;;;12.80;9.43;;;;;;;13.41;59.95;95117.81;4189064;28;20055;-63
2022/10/20 02:10:28;;;;;;;13.68;10.75;;;;;;;13.35;60.27;95113.22;4177812;28;20336;-62
2022/10/20 02:12:34;;;;;;;12.73;10.55;;;;;;;13.23;60.99;95120.59;4191051;28;20052;-64
2022/10/20 02:14:37;;;;;;;15.95;10.77;;;;;;;13.21;60.95;95122.56;4180834;28;20044;-63
2022/10/20 02:16:43;;;;;;;14.93;10.27;;;;;;;13.16;61.23;95127.47;4193854;28;20487;-62
2022/10/20 02:18:45;;;;;;;15.05;10.20;;;;;;;13.10;61.07;95126.34;4196335;28;20055;-63
2022/10/20 02:20:49;;;;;;;17.90;11.00;;;;;;;13.04;61.39;95129.63;4187805;28;20053;-62
2022/10/20 02:22:51;;;;;;;13.43;10.35;;;;;;;13.10;61.46;95132.41;4192953;28;20438;-63
2022/10/20 02:24:53;;;;;;;13.27;11.77;;;;;;;13.16;61.18;95130.94;4184590;28;20467;-64
2022/10/20 02:26:57;;;;;;;14.48;10.32;;;;;;;13.21;61.10;95135.72;4190320;28;20037;-62
2022/10/20 02:29:04;;;;;;;20.55;10.15;;;;;;;13.23;60.92;95133.75;4189368;28;20053;-64
2022/10/20 02:31:06;;;;;;;14.55;10.10;;;;;;;13.10;61.21;95132.41;4182647;28;20107;-63
2022/10/20 02:33:08;;;;;;;13.57;10.52;;;;;;;13.05;61.09;95128.63;4181220;28;20068;-63
2022/10/20 02:35:13;;;;;;;13.68;10.32;;;;;;;13.10;61.08;95129.78;4181728;28;20404;-58
2022/10/20 02:37:15;;;;;;;14.18;10.15;;;;;;;13.14;60.87;95126.81;4190525;28;20052;-56
2022/10/20 02:39:21;;;;;;;12.70;10.13;;;;;;;13.10;60.65;95131.59;4195796;28;20044;-58
2022/10/20 02:41:23;;;;;;;11.82;10.50;;;;;;;13.09;60.85;95132.56;4186720;28;20156;-57
2022/10/20 02:43:25;;;;;;;11.75;10.15;;;;;;;13.05;60.78;95139.16;4186860;28;20128;-58
2022/10/20 02:45:26;;;;;;;13.55;10.70;;;;;;;12.91;61.45;95136.19;4182629;28;20056;-58
2022/10/20 02:47:28;;;;;;;14.07;10.45;;;;;;;12.86;61.27;95137.66;4196012;28;20135;-58
2022/10/20 02:49:30;;;;;;;13.55;10.40;;;;;;;12.85;61.69;95139.47;4189167;28;20428;-57
2022/10/20 02:51:31;;;;;;;14.52;11.60;;;;;;;12.85;61.71;95130.75;4186378;28;20053;-56
2022/10/20 02:53:33;;;;;;;15.50;11.80;;;;;;;12.82;61.67;95138.94;4189248;28;20519;-56
2022/10/20 02:55:35;;;;;;;12.82;10.48;;;;;;;12.82;61.56;95142.44;4189317;28;20132;-60
2022/10/20 02:57:36;;;;;;;16.05;11.13;;;;;;;12.76;61.80;95140.44;4193098;28;20076;-55
2022/10/20 02:59:39;;;;;;;17.00;11.32;;;;;;;12.79;61.58;95147.16;4186507;28;20071;-56
2022/10/20 03:01:40;;;;;;;16.83;10.63;;;;;;;12.82;61.58;95144.22;4194625;28;20496;-54
2022/10/20 03:03:42;;;;;;;15.25;11.10;;;;;;;12.75;61.92;95146.66;4193088;28;20064;-57
2022/10/20 03:05:45;;;;;;;19.63;10.98;;;;;;;12.75;61.64;95143.22;4180053;28;20120;-58
2022/10/20 03:07:47;;;;;;;13.02;10.98;;;;;;;12.70;62.05;95149.78;4187109;28;20500;-58
2022/10/20 03:09:49;;;;;;;11.98;10.68;;;;;;;12.67;62.21;95147.47;4189469;28;20247;-57
2022/10/20 03:11:50;;;;;;;13.95;11.18;;;;;;;12.67;62.31;95147.47;4186967;28;20539;-57
2022/10/20 03:13:52;;;;;;;13.82;11.25;;;;;;;12.66;62.50;95153.72;4191425;28;20047;-58
2022/10/20 03:15:54;;;;;;;14.70;11.25;;;;;;;12.62;62.47;95151.56;4187453;28;20080;-62
2022/10/20 03:17:55;;;;;;;16.42;11.30;;;;;;;12.54;62.81;95156.78;4196134;28;20076;-63
2022/10/20 03:19:57;;;;;;;14.60;11.45;;;;;;;12.59;62.58;95157.97;4192420;28;20052;-64
2022/10/20 03:21:59;;;;;;;13.45;11.05;;;;;;;12.60;62.36;95161.41;4184729;28;20060;-59
2022/10/20 03:24:00;;;;;;;14.18;10.63;;;;;;;12.53;62.91;95157.78;4196724;28;20053;-58
2022/10/20 03:26:04;;;;;;;13.93;11.40;;;;;;;12.56;62.73;95155.69;4194998;28;20130;-64
2022/10/20 03:28:05;;;;;;;14.00;11.23;;;;;;;12.62;62.37;95155.00;4194387;28;20076;-63
2022/10/20 03:30:07;;;;;;;14.85;10.80;;;;;;;12.62;62.53;95162.91;4188000;28;20503;-63
2022/10/20 03:32:09;;;;;;;14.80;11.00;;;;;;;12.62;62.76;95168.16;4189575;28;20455;-64
2022/10/20 03:34:11;;;;;;;16.30;11.38;;;;;;;12.62;62.79;95162.06;4195916;28;20493;-64
2022/10/20 03:36:13;;;;;;;15.68;10.80;;;;;;;12.61;62.56;95157.81;4183246;28;20525;-61
2022/10/20 03:38:15;;;;;;;15.15;11.45;;;;;;;12.53;62.71;95163.88;4194586;28;20044;-64
2022/10/20 03:40:17;;;;;;;12.95;11.18;;;;;;;12.53;62.97;95170.94;4185287;28;20167;-62
2022/10/20 03:42:18;;;;;;;13.57;11.13;;;;;;;12.55;62.92;95164.53;4183068;28;20092;-62
2022/10/20 03:44:20;;;;;;;15.70;10.70;;;;;;;12.63;62.65;95161.94;4180059;28;20167;-63
2022/10/20 03:46:22;;;;;;;17.10;11.35;;;;;;;12.70;62.42;95173.44;4178841;28;20077;-62
2022/10/20 03:48:23;;;;;;;14.57;11.38;;;;;;;12.75;62.00;95167.69;4179869;28;20681;-58
2022/10/20 03:50:25;;;;;;;14.38;10.80;;;;;;;12.74;62.27;95173.94;4184911;28;20068;-58
2022/10/20 03:52:27;;;;;;;16.73;12.68;;;;;;;12.71;62.38;95176.88;4179043;28;20045;-58
2022/10/20 03:54:28;;;;;;;13.93;11.32;;;;;;;12.76;61.93;95181.69;4178745;28;20048;-57
2022/10/20 03:56:30;;;;;;;15.32;11.05;;;;;;;12.75;62.09;95186.09;4184678;28;20080;-55
2022/10/20 03:58:32;;;;;;;15.30;11.40;;;;;;;12.75;62.08;95186.09;4190637;28;20497;-55
2022/10/20 04:00:34;;;;;;;13.85;10.75;;;;;;;12.78;61.63;95183.16;4185563;28;20180;-57
2022/10/20 04:02:38;;;;;;;14.50;10.77;;;;;;;12.80;61.96;95181.19;4191806;28;20048;-59
2022/10/20 04:04:40;;;;;;;16.52;11.40;;;;;;;12.77;62.00;95178.06;4194088;28;20510;-57
2022/10/20 04:06:42;;;;;;;19.80;11.88;;;;;;;12.75;62.33;95180.84;4182480;28;20084;-59
2022/10/20 04:08:43;;;;;;;15.55;11.07;;;;;;;12.67;62.82;95184.28;4179810;28;20049;-58
2022/10/20 04:10:45;;;;;;;17.88;11.93;;;;;;;12.61;62.80;95177.03;4178223;28;20053;-58
2022/10/20 04:12:47;;;;;;;15.57;10.88;;;;;;;12.49;63.52;95178.31;4193854;28;20497;-59
2022/10/20 04:14:49;;;;;;;12.15;10.65;;;;;;;12.42;63.37;95191.25;4177443;28;20126;-60
2022/10/20 04:16:50;;;;;;;17.73;11.13;;;;;;;12.42;63.71;95187.81;4177663;28;20471;-58
2022/10/20 04:18:52;;;;;;;15.75;10.93;;;;;;;12.38;63.52;95182.03;4184432;28;20080;-57
2022/10/20 04:20:54;;;;;;;19.42;11.93;;;;;;;12.32;63.86;95166.09;4185146;28;20088;-57
2022/10/20 04:22:55;;;;;;;14.68;11.75;;;;;;;12.21;64.18;95185.56;4192425;28;20131;-56
2022/10/20 04:24:57;;;;;;;16.23;11.73;;;;;;;12.12;64.27;95184.72;4183182;28;20048;-59
2022/10/20 04:26:59;;;;;;;14.00;10.65;;;;;;;12.18;64.30;95183.28;4194201;28;20500;-59
2022/10/20 04:29:01;;;;;;;16.92;12.23;;;;;;;12.19;64.04;95180.47;4195672;28;20048;-59
2022/10/20 04:31:03;;;;;;;14.80;10.95;;;;;;;12.27;63.97;95177.88;4192382;28;20405;-60
2022/10/20 04:33:05;;;;;;;16.45;11.57;;;;;;;12.26;64.21;95183.28;4182463;28;20059;-62
2022/10/20 04:35:07;;;;;;;13.77;11.20;;;;;;;12.27;64.22;95179.69;4195350;28;20113;-59
2022/10/20 04:37:09;;;;;;;15.02;11.55;;;;;;;12.32;63.94;95181.84;4194015;28;20047;-58
2022/10/20 04:39:11;;;;;;;15.43;10.73;;;;;;;12.27;63.92;95179.69;4194575;28;20048;-58
2022/10/20 04:41:13;;;;;;;16.23;11.60;;;;;;;12.28;64.05;95183.97;4194772;28;20545;-61
2022/10/20 04:43:14;;;;;;;19.85;11.57;;;;;;;12.32;63.82;95181.84;4195215;28;20076;-64
2022/10/20 04:45:16;;;;;;;19.33;10.82;;;;;;;12.20;64.24;95192.63;4185772;28;20142;-61
2022/10/20 04:47:18;;;;;;;14.68;9.95;;;;;;;12.12;64.49;95182.09;4189552;28;20041;-59
2022/10/20 04:49:20;;;;;;;14.40;11.15;;;;;;;12.19;64.44;95190.97;4185704;28;20055;-59
2022/10/20 04:51:21;;;;;;;16.85;11.40;;;;;;;12.16;64.14;95191.31;4195316;28;20132;-59
2022/10/20 04:53:23;;;;;;;16.73;10.52;;;;;;;12.22;64.10;95185.44;4188707;28;20076;-58
2022/10/20 04:55:25;;;;;;;15.63;11.38;;;;;;;12.24;64.08;95187.91;4184030;28;20575;-59
2022/10/20 04:57:26;;;;;;;17.67;11.80;;;;;;;12.24;64.03;95198.41;4192322;28;20131;-59
2022/10/20 04:59:28;;;;;;;13.60;11.77;;;;;;;12.17;64.10;95192.94;4187808;28;20055;-57
2022/10/20 05:01:30;;;;;;;14.27;11.57;;;;;;;12.14;64.40;95209.03;4186008;28;20093;-57
2022/10/20 05:03:33;;;;;;;14.73;11.45;;;;;;;12.13;64.59;95207.38;4193415;28;20645;-59
2022/10/20 05:05:35;;;;;;;15.77;10.85;;;;;;;12.15;64.61;95213.28;4188983;28;20055;-58
2022/10/20 05:07:36;;;;;;;13.45;11.13;;;;;;;12.14;64.42;95213.47;4186960;28;20135;-59
2022/10/20 05:09:38;;;;;;;15.60;11.63;;;;;;;12.12;64.52;95210.97;4178787;28;20057;-56
2022/10/20 05:11:41;;;;;;;18.38;10.95;;;;;;;12.21;64.22;95214.47;4184763;28;20049;-58
2022/10/20 05:13:42;;;;;;;13.75;11.68;;;;;;;12.32;63.71;95216.00;4186198;28;20127;-59
2022/10/20 05:15:44;;;;;;;13.85;10.27;;;;;;;12.26;64.19;95218.28;4186567;28;20340;-58
2022/10/20 05:17:46;;;;;;;17.30;10.73;;;;;;;12.35;63.88;95210.44;4187149;28;20049;-60
2022/10/20 05:19:47;;;;;;;15.95;10.63;;;;;;;12.45;63.32;95221.63;4192697;28;20116;-59
2022/10/20 05:21:49;;;;;;;13.10;10.13;;;;;;;12.57;62.98;95224.81;4192836;28;20132;-61
2022/10/20 05:23:59;;;;;;;13.27;10.43;;;;;;;12.56;63.01;95229.25;4194293;28;20079;-60
2022/10/20 05:26:06;;;;;;;14.38;10.85;;;;;;;12.63;62.60;95225.00;4193371;28;20056;-61
2022/10/20 05:28:07;;;;;;;15.23;10.93;;;;;;;12.78;61.92;95234.94;4193669;28;20041;-61
2022/10/20 05:30:10;;;;;;;12.95;9.93;;;;;;;12.67;62.22;95230.78;4191913;28;20080;-60
2022/10/20 05:32:11;;;;;;;16.20;10.13;;;;;;;12.70;62.04;95241.78;4184737;28;20087;-58
2022/10/20 05:34:13;;;;;;;12.25;9.23;;;;;;;12.59;62.17;95244.72;4178200;28;20512;-60
2022/10/20 05:36:17;;;;;;;15.68;10.48;;;;;;;12.52;62.68;95248.09;4181126;28;20144;-60
2022/10/20 05:38:22;;;;;;;15.50;9.82;;;;;;;12.59;62.48;95251.78;4193812;28;20052;-59
2022/10/20 05:40:24;;;;;;;14.07;10.35;;;;;;;12.60;62.50;95261.28;4185456;28;20565;-60
2022/10/20 05:42:25;;;;;;;14.80;10.82;;;;;;;12.66;62.57;95258.84;4193046;28;20044;-60
2022/10/20 05:44:27;;;;;;;15.10;10.75;;;;;;;12.68;62.70;95267.41;4194092;28;20110;-59
2022/10/20 05:46:31;;;;;;;15.40;10.52;;;;;;;12.73;62.70;95272.19;4193056;28;20049;-56
2022/10/20 05:48:34;;;;;;;13.25;11.00;;;;;;;12.72;62.91;95281.06;4182134;28;20080;-59
2022/10/20 05:50:41;;;;;;;14.52;11.00;;;;;;;12.78;62.67;95283.06;4184502;28;20045;-58
2022/10/20 05:52:42;;;;;;;13.32;10.65;;;;;;;12.80;62.53;95285.53;4181891;28;20102;-59
2022/10/20 05:54:44;;;;;;;14.82;10.90;;;;;;;12.83;62.47;95288.66;4182214;28;20099;-60
2022/10/20 05:56:46;;;;;;;21.30;12.25;;;;;;;12.81;62.85;95301.16;4181162;28;20037;-60
2022/10/20 05:58:47;;;;;;;18.77;11.75;;;;;;;12.69;63.15;95300.63;4181450;28;20285;-58
2022/10/20 06:00:52;;;;;;;22.30;12.23;;;;;;;12.77;63.32;95294.56;4189206;28;20129;-59
2022/10/20 06:02:54;;;;;;;14.45;10.93;;;;;;;12.80;63.09;95303.91;4197669;28;20130;-58
2022/10/20 06:04:55;;;;;;;20.35;12.07;;;;;;;12.94;63.00;95310.41;4197764;28;20050;-58
2022/10/20 06:06:58;;;;;;;14.65;11.23;;;;;;;12.93;62.91;95306.97;4190997;28;20069;-60
2022/10/20 06:09:00;;;;;;;21.58;12.27;;;;;;;12.95;62.94;95312.88;4194433;28;20139;-61
2022/10/20 06:11:07;;;;;;;14.95;12.43;;;;;;;12.91;63.19;95320.25;4196657;28;20053;-59
2022/10/20 06:13:09;;;;;;;19.80;12.80;;;;;;;12.96;63.69;95313.69;4196283;28;20052;-57
2022/10/20 06:15:10;;;;;;;14.07;12.15;;;;;;;13.04;63.01;95330.34;4195839;28;20072;-61
2022/10/20 06:17:12;;;;;;;14.98;11.85;;;;;;;12.91;63.34;95325.50;4196242;28;20076;-63
2022/10/20 06:19:14;;;;;;;20.02;13.45;;;;;;;12.91;64.06;95322.06;4193548;28;20127;-59
2022/10/20 06:21:24;;;;;;;14.65;12.10;;;;;;;12.93;63.76;95332.41;4180636;28;20079;-64
2022/10/20 06:23:26;;;;;;;15.23;12.70;;;;;;;12.87;64.53;95331.25;4180063;28;20076;-65
2022/10/20 06:25:28;;;;;;;17.80;13.05;;;;;;;12.85;64.24;95341.09;4188585;28;20052;-64
2022/10/20 06:27:29;;;;;;;20.02;13.90;;;;;;;12.85;64.33;95347.19;4187415;28;20438;-68
2022/10/20 06:29:31;;;;;;;16.23;12.63;;;;;;;12.97;64.28;95337.22;4181527;28;20092;-65
2022/10/20 06:31:35;;;;;;;15.70;12.38;;;;;;;13.09;63.58;95335.94;4182782;28;20135;-65
2022/10/20 06:33:37;;;;;;;18.35;13.10;;;;;;;13.15;63.35;95344.19;4197441;28;20052;-66
2022/10/20 06:35:38;;;;;;;15.20;12.75;;;;;;;13.14;63.54;95345.16;4197516;28;20084;-64
2022/10/20 06:37:40;;;;;;;16.05;12.57;;;;;;;13.14;63.23;95340.72;4196673;28;20489;-62
2022/10/20 06:39:42;;;;;;;14.70;11.63;;;;;;;13.14;63.42;95342.53;4196963;28;20076;-65
2022/10/20 06:41:52;;;;;;;22.77;12.13;;;;;;;13.19;63.20;95346.34;4184278;28;20063;-64
2022/10/20 06:43:57;;;;;;;16.98;12.93;;;;;;;13.35;63.25;95350.03;4180561;28;20474;-64
2022/10/20 06:46:01;;;;;;;19.05;12.50;;;;;;;13.40;62.56;95348.59;4178849;28;20104;-64
2022/10/20 06:48:03;;;;;;;16.95;12.85;;;;;;;13.30;63.37;95355.78;4179984;28;20092;-67
2022/10/20 06:50:06;;;;;;;19.27;12.90;;;;;;;13.39;63.25;95340.84;4189877;28;20079;-65
2022/10/20 06:52:08;;;;;;;21.17;13.07;;;;;;;13.60;62.25;95350.94;4188542;28;20045;-65
2022/10/20 06:54:12;;;;;;;18.60;13.90;;;;;;;13.42;62.89;95349.25;4180707;28;20072;-64
2022/10/20 06:56:21;;;;;;;15.95;12.57;;;;;;;13.47;63.31;95356.66;4183440;28;20060;-65
2022/10/20 06:58:24;;;;;;;15.35;13.23;;;;;;;13.07;63.12;95361.56;4179170;28;20107;-62
2022/10/20 07:00:25;;;;;;;21.65;13.85;;;;;;;13.04;64.23;95356.63;4185496;28;20087;-62
2022/10/20 07:02:27;;;;;;;16.90;12.18;;;;;;;13.00;64.18;95359.75;4184234;28;20049;-66
2022/10/20 07:04:29;;;;;;;22.05;13.45;;;;;;;13.12;63.92;95363.75;4180059;28;20358;-64
2022/10/20 07:06:36;;;;;;;16.85;12.85;;;;;;;13.33;63.09;95360.72;4182033;28;20565;-67
2022/10/20 07:08:38;;;;;;;21.35;12.70;;;;;;;13.37;62.85;95359.41;4182704;28;20045;-64
2022/10/20 07:10:39;;;;;;;26.48;13.07;;;;;;;13.47;63.11;95360.09;4180872;28;20061;-64
2022/10/20 07:12:41;;;;;;;16.35;11.77;;;;;;;13.49;61.95;95358.13;4193571;28;20489;-65
2022/10/20 07:14:43;;;;;;;16.27;12.00;;;;;;;13.58;61.72;95364.25;4181408;28;20055;-69
2022/10/20 07:16:44;;;;;;;17.00;12.45;;;;;;;13.41;61.93;95365.19;4187436;28;20052;-65
2022/10/20 07:18:46;;;;;;;17.20;12.68;;;;;;;13.20;62.56;95368.19;4191126;28;20135;-66
2022/10/20 07:20:48;;;;;;;20.67;12.07;;;;;;;13.17;62.56;95371.97;4181600;28;20084;-65
2022/10/20 07:22:50;;;;;;;17.48;12.13;;;;;;;13.22;62.51;95363.59;4193041;28;20165;-66
2022/10/20 07:24:52;;;;;;;14.27;11.40;;;;;;;13.15;62.24;95360.78;4183230;28;20457;-66
2022/10/20 07:26:54;;;;;;;17.38;13.02;;;;;;;13.23;62.25;95360.00;4189030;28;20052;-65
2022/10/20 07:28:58;;;;;;;19.65;12.32;;;;;;;13.35;62.42;95358.75;4189865;28;20048;-64
2022/10/20 07:31:08;;;;;;;17.17;12.10;;;;;;;13.67;61.22;95360.63;4192194;28;20056;-65
2022/10/20 07:33:10;;;;;;;13.55;11.05;;;;;;;13.76;60.88;95364.09;4183997;28;20083;-65
2022/10/20 07:35:12;;;;;;;14.50;11.23;;;;;;;13.87;60.50;95358.53;4195580;28;20075;-65
2022/10/20 07:37:13;;;;;;;13.88;11.35;;;;;;;13.90;59.97;95370.56;4194276;28;20135;-65
2022/10/20 07:39:15;;;;;;;15.35;11.60;;;;;;;14.06;59.56;95370.56;4183069;28;20049;-66
2022/10/20 07:41:17;;;;;;;17.15;12.18;;;;;;;14.22;59.02;95369.75;4178499;28;20087;-66
2022/10/20 07:43:19;;;;;;;13.10;11.20;;;;;;;14.21;59.08;95373.34;4192305;28;20645;-65
2022/10/20 07:45:20;;;;;;;16.17;11.18;;;;;;;14.16;59.04;95367.78;4179451;28;20422;-64
2022/10/20 07:47:22;;;;;;;16.92;11.30;;;;;;;14.00;59.02;95367.75;4186291;28;20068;-66
2022/10/20 07:49:24;;;;;;;12.48;10.95;;;;;;;13.66;60.14;95372.16;4193767;28;20070;-64
2022/10/20 07:51:44;;;;;;;15.35;11.25;;;;;;;13.85;59.44;95367.56;4181269;28;20531;-64
2022/10/20 07:53:47;;;;;;;17.90;11.40;;;;;;;14.12;59.20;95362.00;4180141;28;20044;-66
2022/10/20 07:55:49;;;;;;;20.08;11.32;;;;;;;14.29;58.14;95360.19;4178311;28;20048;-63
2022/10/20 07:57:50;;;;;;;14.93;11.27;;;;;;;14.48;57.66;95361.66;4179922;28;20041;-65
2022/10/20 07:59:52;;;;;;;17.40;11.80;;;;;;;14.43;57.02;95371.03;4193401;28;20139;-64
2022/10/20 08:01:54;;;;;;;14.82;10.90;;;;;;;14.21;58.31;95362.00;4179031;28;20203;-58
2022/10/20 08:03:59;;;;;;;18.65;11.98;;;;;;;14.36;58.12;95357.72;4189634;28;20063;-60
2022/10/20 08:06:01;;;;;;;17.70;12.00;;;;;;;13.93;58.26;95362.31;4183297;28;20092;-59
2022/10/20 08:08:03;;;;;;;17.10;12.52;;;;;;;13.83;59.35;95359.00;4178549;28;20133;-60
2022/10/20 08:10:06;;;;;;;27.77;12.65;;;;;;;13.90;58.41;95360.03;4184573;28;20135;-59
2022/10/20 08:12:07;;;;;;;16.88;12.00;;;;;;;14.07;58.79;95355.59;4179795;28;20049;-59
2022/10/20 08:14:09;;;;;;;16.35;10.75;;;;;;;13.49;59.54;95366.03;4180357;28;20089;-60
2022/10/20 08:16:13;;;;;;;13.70;10.95;;;;;;;13.34;60.40;95370.28;4179312;28;20069;-60
2022/10/20 08:18:24;;;;;;;13.65;10.32;;;;;;;13.40;59.64;95359.09;4183649;28;20073;-59
2022/10/20 08:20:25;;;;;;;16.83;10.70;;;;;;;13.25;59.70;95356.22;4189193;28;20053;-60
2022/10/20 08:22:29;;;;;;;14.35;9.80;;;;;;;13.07;59.98;95358.94;4189534;28;20147;-59
2022/10/20 08:24:31;;;;;;;16.05;10.63;;;;;;;13.15;60.19;95357.34;4195881;28;20466;-60
2022/10/20 08:26:33;;;;;;;18.30;10.98;;;;;;;13.30;59.01;95356.59;4177371;28;20040;-59
2022/10/20 08:28:35;;;;;;;20.05;10.57;;;;;;;13.28;59.00;95355.09;4185572;28;20050;-59
2022/10/20 08:30:37;;;;;;;16.63;10.98;;;;;;;13.52;58.79;95349.91;4193644;28;20056;-60
2022/10/20 08:32:39;;;;;;;15.77;10.82;;;;;;;13.74;58.01;95350.28;4194734;28;20097;-61
2022/10/20 08:34:40;;;;;;;10.77;7.88;;;;;;;13.34;57.20;95354.47;4180233;28;20049;-61
2022/10/20 08:36:42;;;;;;;17.00;8.98;;;;;;;13.36;57.88;95343.78;4186160;28;20076;-57
2022/10/20 08:38:44;;;;;;;11.50;8.43;;;;;;;13.32;57.93;95351.19;4186458;28;20064;-58
2022/10/20 08:40:46;;;;;;;14.07;8.00;;;;;;;13.21;57.94;95356.72;4183517;28;20131;-60
2022/10/20 08:42:48;;;;;;;12.27;7.75;;;;;;;13.48;58.01;95339.88;4195561;28;20762;-61
2022/10/20 08:44:50;;;;;;;10.13;8.13;;;;;;;13.54;57.16;95343.66;4191064;28;20052;-60
2022/10/20 08:46:52;;;;;;;16.85;7.65;;;;;;;13.73;57.13;95341.56;4191549;28;20052;-59
2022/10/20 08:48:54;;;;;;;12.60;7.97;;;;;;;14.11;55.88;95336.66;4195419;28;20509;-59
2022/10/20 08:50:56;;;;;;;18.95;9.88;;;;;;;14.43;54.97;95345.53;4194108;28;20582;-60
2022/10/20 08:52:58;;;;;;;10.48;8.13;;;;;;;14.66;54.20;95350.13;4195894;28;20107;-59
2022/10/20 08:55:03;;;;;;;11.32;8.20;;;;;;;14.36;54.50;95339.25;4195091;28;20085;-60
2022/10/20 08:57:18;;;;;;;11.65;7.80;;;;;;;14.21;54.82;95327.75;4194353;28;20128;-58
2022/10/20 08:59:25;;;;;;;9.43;6.75;;;;;;;14.53;53.48;95334.78;4193393;28;20123;-60
2022/10/20 09:01:34;;;;;;;9.55;6.95;;;;;;;14.57;52.54;95348.50;4192072;28;20091;-61
2022/10/20 09:03:36;;;;;;;10.95;6.82;;;;;;;14.58;52.68;95342.22;4193683;28;20084;-60
2022/10/20 09:05:40;;;;;;;8.05;6.25;;;;;;;14.63;51.56;95338.09;4193357;28;20123;-60
2022/10/20 09:07:42;;;;;;;8.23;6.20;;;;;;;14.74;51.24;95347.47;4191876;28;20128;-60
2022/10/20 09:09:44;;;;;;;7.82;5.70;;;;;;;14.98;50.67;95332.56;4190426;28;20128;-63
2022/10/20 09:11:46;;;;;;;11.55;6.97;;;;;;;14.86;50.57;95340.00;4182671;28;20122;-60
2022/10/20 09:13:48;;;;;;;7.97;5.75;;;;;;;15.12;50.51;95345.03;4178889;28;20501;-67
2022/10/20 09:15:55;;;;;;;9.20;6.25;;;;;;;15.38;49.40;95342.13;4175768;28;20061;-64
2022/10/20 09:18:02;;;;;;;8.70;5.80;;;;;;;15.27;49.28;95340.69;4178680;28;20083;-66
2022/10/20 09:20:05;;;;;;;11.85;6.13;;;;;;;15.10;48.89;95345.22;4194395;28;20052;-65
2022/10/20 09:22:07;;;;;;;10.80;5.95;;;;;;;15.25;48.96;95341.81;4190444;28;20458;-65
2022/10/20 09:24:09;;;;;;;8.73;5.63;;;;;;;15.24;48.62;95351.56;4189180;28;20094;-58
2022/10/20 09:26:19;;;;;;;7.38;5.18;;;;;;;15.03;48.34;95346.06;4192368;28;20585;-63
2022/10/20 09:28:40;;;;;;;12.77;5.47;;;;;;;15.38;48.38;95349.19;4187032;28;20072;-58
2022/10/20 09:31:02;;;;;;;12.20;6.70;;;;;;;15.65;47.38;95358.47;4176939;28;20052;-58